My Meet Scores
Stephanie Reed, Chelsea Piers Connecticut - MyMeetScores.com
Top100 | Top Teams | Upcoming Meets | Completed Meets | Latest | Add Scores | Help| Support | Bookmark and Share

Stephanie Reed, Chelsea Piers Connecticut
Personal Bests
LevelVault BarsBeamFloorAA
39.0009.050 8.7008.85034.725
49.2759.000 9.2509.30036.475
58.7756.000 9.1009.07532.725
XP9.1508.400 9.2259.40035.000
Meet Scores
Date Meet Team Session Level Division Vault Bars Beam Floor AA
2020-02-28 Long Island Classic Chelsea Piers Connecticut 7 XP All 8.575 5 8.400 2 8.625 2T 9.400 1 35.000 2
2020-02-21 Team Challenge 2020 Chelsea Piers Connecticut R10 XP Junior 8.500 10 7.750 10T 8.000 11 9.150 7 33.400 11
2020-02-15 Chelsea Piers Winter Challenge Chelsea Piers Connecticut C5 XP Younger 8.450 11 7.600 8 8.350 11 9.125 8T 33.525 10
2020-01-24 2020 Kinetic Kids Invitational Chelsea Piers Connecticut 8 XP Jr A 9.150 5 7.650 7T 9.225 2 8.750 5T 34.775 6
2019-03-02 2019 Holiday Costume Cup Chelsea Piers Connecticut 5 5 All Ages 8.775 1T 5.350 11 9.100 1 8.850 7 32.075 5
2019-02-16 Chelsea Piers Winter Challenge Chelsea Piers Connecticut C8 5 Middle 8.550 10T 6.000 20 9.100 14 9.075 5 32.725 18
2019-02-01 State Level 4&5 Chelsea Piers Connecticut 2 4 11C 9.100 11T 9.000 8T 9.150 19 9.225 10T 36.475 7
2019-01-25 T.D.N.I. Chelsea Piers Connecticut A15 4 D 9.100 3T 9.000 5 9.200 5T 9.100 4 36.400 4
2019-01-10 Little Boston Invitational Chelsea Piers Connecticut B08 4 SR 7.950 17 8.900 8T 9.150 5T 9.000 10T 35.000 9
2018-12-08 American Gymnastics Invitational Chelsea Piers Connecticut 5 4 Sr B 8.800 4 7.675 8 9.250 4 9.300 3 35.025 5
2018-11-17 2018 Connecticut Judge's Cup Chelsea Piers Connecticut 6 4 11 yrs. 9.075 8T 8.100 34T 8.600 21 9.075 15T 34.850 16
2018-11-02 Muriel Grossfeld Invitational Chelsea Piers Connecticut 1 4 Sr B 8.150 10 7.650 11 8.150 17 9.225 5 33.175 11
2018-03-02 Starlight Invitational Chelsea Piers Connecticut 10 4 Division 2 9.075 3 8.700 8 9.125 6 8.900 10 35.800 7
2018-02-16 Chelsea Piers Winter Challenge Chelsea Piers Connecticut F-4 4 Junior 9.275 6T 8.300 12 8.800 9T 8.600 18 34.975 12
2018-02-03 Level 4 & 5 States Chelsea Piers Connecticut 3 4 10 A 8.500 39T 7.850 38T 9.200 22T 8.350 41T 33.900 37
2018-01-26 2018 American Invitational Chelsea Piers Connecticut 12B 4 Junior 7.900 16 8.200 15 8.125 15 8.875 14 33.100 16
2018-01-11 Brestyan's Invitational Chelsea Piers Connecticut A4 4 Age 3 8.225 53 8.100 53 8.200 51T 8.275 44T 32.800 53
2016-04-02 2016 Connecticut Level 6 States & Level 3 State Cup Chelsea Piers Connecticut 5 3 N/A 9.000 33T 8.750 18 8.650 11 7.800 59 34.200 34T
2016-02-13 Chelsea Piers Winter Challenge Chelsea Piers Connecticut F5 3 CH B 8.350 14 9.050 11 8.475 11T 8.850 5 34.725 12T
2016-01-28 2016 American Invitational Chelsea Piers Connecticut 1B 3 Child 8.850 11T 8.100 11 8.700 4 8.600 7 34.250 8
Get your scores on
a t-shirt, pin, or hoodie

www.lazysuits.com